createdAt,value
2015-08-28T00:00:04.948Z,100490
2015-08-28T00:00:15.370Z,100490
2015-08-28T00:00:25.745Z,100490
2015-08-28T00:00:36.172Z,100490
2015-08-28T00:00:46.594Z,100495
2015-08-28T00:00:56.953Z,100487
2015-08-28T00:01:07.344Z,100495
2015-08-28T00:01:17.766Z,100498
2015-08-28T00:01:28.831Z,100498
2015-08-28T00:01:39.222Z,100498
2015-08-28T00:01:49.597Z,100501
2015-08-28T00:01:59.988Z,100498
2015-08-28T00:02:10.394Z,100501
2015-08-28T00:02:20.769Z,100507
2015-08-28T00:02:31.165Z,100507
2015-08-28T00:02:41.555Z,100515
2015-08-28T00:02:51.977Z,100504
2015-08-28T00:03:02.368Z,100504
2015-08-28T00:03:12.774Z,100507
2015-08-28T00:03:23.180Z,100507
2015-08-28T00:03:33.574Z,100504
2015-08-28T00:03:43.980Z,100501
2015-08-28T00:03:54.386Z,100515
2015-08-28T00:04:04.793Z,100513
2015-08-28T00:04:15.168Z,100513
2015-08-28T00:04:25.589Z,100518
2015-08-28T00:04:36.045Z,100521
2015-08-28T00:04:46.466Z,100515
2015-08-28T00:04:56.857Z,100515
2015-08-28T00:05:07.248Z,100527
2015-08-28T00:05:17.638Z,100527
2015-08-28T00:05:28.029Z,100521
2015-08-28T00:05:38.954Z,100533
2015-08-28T00:05:49.344Z,100518
2015-08-28T00:05:59.735Z,100533
2015-08-28T00:06:10.141Z,100524
2015-08-28T00:06:20.532Z,100530
2015-08-28T00:06:30.940Z,100530
2015-08-28T00:06:41.706Z,100533
2015-08-28T00:06:52.128Z,100521
2015-08-28T00:07:02.518Z,100527
2015-08-28T00:07:12.925Z,100524
2015-08-28T00:07:23.300Z,100527
2015-08-28T00:07:33.725Z,100524
2015-08-28T00:07:44.132Z,100530
2015-08-28T00:07:54.554Z,100533
2015-08-28T00:08:04.913Z,100533
2015-08-28T00:08:15.335Z,100515
2015-08-28T00:08:25.772Z,100539
2015-08-28T00:08:36.196Z,100533
2015-08-28T00:08:46.618Z,100527
2015-08-28T00:08:56.962Z,100521
2015-08-28T00:09:07.321Z,100533
2015-08-28T00:09:17.712Z,100527
2015-08-28T00:09:28.102Z,100539
2015-08-28T00:09:38.603Z,100536
2015-08-28T00:09:48.994Z,100533
2015-08-28T00:09:59.400Z,100536
2015-08-28T00:10:09.775Z,100527
2015-08-28T00:10:20.182Z,100539
2015-08-28T00:10:30.603Z,100530
2015-08-28T00:10:40.997Z,100536
2015-08-28T00:10:51.403Z,100524
2015-08-28T00:11:01.794Z,100527
2015-08-28T00:11:12.200Z,100539
2015-08-28T00:11:22.606Z,100530
2015-08-28T00:11:32.999Z,100521
2015-08-28T00:11:43.390Z,100530
2015-08-28T00:11:53.796Z,100530
2015-08-28T00:12:04.218Z,100524
2015-08-28T00:12:14.624Z,100530
2015-08-28T00:12:25.062Z,100530
2015-08-28T00:12:35.500Z,100533
2015-08-28T00:12:45.922Z,100533
2015-08-28T00:12:56.344Z,100524
2015-08-28T00:13:06.781Z,100524
2015-08-28T00:13:17.203Z,100521
2015-08-28T00:13:28.234Z,100521
2015-08-28T00:13:38.753Z,100527
2015-08-28T00:13:49.144Z,100515
2015-08-28T00:13:59.550Z,100521
2015-08-28T00:14:09.941Z,100521
2015-08-28T00:14:20.331Z,100518
2015-08-28T00:14:30.722Z,100518
2015-08-28T00:14:41.129Z,100518
2015-08-28T00:14:51.520Z,100521
2015-08-28T00:15:01.910Z,100515
2015-08-28T00:15:12.301Z,100515
2015-08-28T00:15:22.692Z,100527
2015-08-28T00:15:33.082Z,100521
2015-08-28T00:15:43.475Z,100518
2015-08-28T00:15:53.881Z,100510
2015-08-28T00:16:04.272Z,100515
2015-08-28T00:16:14.662Z,100518
2015-08-28T00:16:25.084Z,100513
2015-08-28T00:16:35.524Z,100518
2015-08-28T00:16:46.586Z,100521
2015-08-28T00:16:57.008Z,100518
2015-08-28T00:17:07.430Z,100518
2015-08-28T00:17:17.883Z,100521
2015-08-28T00:17:28.242Z,100530
2015-08-28T00:17:38.776Z,100515
2015-08-28T00:17:49.166Z,100524
2015-08-28T00:17:59.573Z,100518
2015-08-28T00:18:09.963Z,100524
2015-08-28T00:18:20.354Z,100521
2015-08-28T00:18:30.760Z,100530
2015-08-28T00:18:41.153Z,100533
2015-08-28T00:18:51.543Z,100539
2015-08-28T00:19:01.950Z,100524
2015-08-28T00:19:12.340Z,100530
2015-08-28T00:19:22.715Z,100527
2015-08-28T00:19:33.137Z,100536
2015-08-28T00:19:43.483Z,100533
2015-08-28T00:19:53.889Z,100539
2015-08-28T00:20:04.295Z,100533
2015-08-28T00:20:14.733Z,100539
2015-08-28T00:20:25.155Z,100550
2015-08-28T00:20:35.592Z,100539
2015-08-28T00:20:46.047Z,100544
2015-08-28T00:20:56.407Z,100547
2015-08-28T00:21:07.469Z,100547
2015-08-28T00:21:17.860Z,100547
2015-08-28T00:21:28.266Z,100550
2015-08-28T00:21:38.768Z,100547
2015-08-28T00:21:49.174Z,100553
2015-08-28T00:21:59.581Z,100550
2015-08-28T00:22:09.987Z,100553
2015-08-28T00:22:20.377Z,100544
2015-08-28T00:22:30.815Z,100547
2015-08-28T00:22:41.192Z,100539
2015-08-28T00:22:51.583Z,100541
2015-08-28T00:23:01.989Z,100536
2015-08-28T00:23:12.379Z,100539
2015-08-28T00:23:22.770Z,100533
2015-08-28T00:23:33.192Z,100539
2015-08-28T00:23:43.585Z,100539
2015-08-28T00:23:54.006Z,100536
2015-08-28T00:24:04.397Z,100536
2015-08-28T00:24:14.788Z,100533
2015-08-28T00:24:25.225Z,100533
2015-08-28T00:24:35.585Z,100530
2015-08-28T00:24:46.024Z,100541
2015-08-28T00:24:56.446Z,100527
2015-08-28T00:25:06.868Z,100536
2015-08-28T00:25:17.243Z,100524
2015-08-28T00:25:27.649Z,100527
2015-08-28T00:25:38.040Z,100521
2015-08-28T00:25:48.432Z,100521
2015-08-28T00:25:58.839Z,100524
2015-08-28T00:26:09.229Z,100527
2015-08-28T00:26:19.635Z,100521
2015-08-28T00:26:30.667Z,100533
2015-08-28T00:26:41.059Z,100524
2015-08-28T00:26:51.466Z,100524
2015-08-28T00:27:01.856Z,100524
2015-08-28T00:27:12.247Z,100527
2015-08-28T00:27:22.637Z,100524
2015-08-28T00:27:33.028Z,100536
2015-08-28T00:27:43.920Z,100533
2015-08-28T00:27:54.310Z,100527
2015-08-28T00:28:04.732Z,100524
2015-08-28T00:28:15.138Z,100530
2015-08-28T00:28:25.529Z,100527
2015-08-28T00:28:35.967Z,100530
2015-08-28T00:28:46.376Z,100530
2015-08-28T00:28:56.798Z,100536
2015-08-28T00:29:07.235Z,100536
2015-08-28T00:29:17.657Z,100533
2015-08-28T00:29:28.079Z,100530
2015-08-28T00:29:38.829Z,100536
2015-08-28T00:29:49.221Z,100536
2015-08-28T00:29:59.642Z,100536
2015-08-28T00:30:10.033Z,100536
2015-08-28T00:30:20.455Z,100541
2015-08-28T00:30:30.846Z,100539
2015-08-28T00:30:41.236Z,100530
2015-08-28T00:30:51.629Z,100539
2015-08-28T00:31:02.051Z,100521
2015-08-28T00:31:12.441Z,100536
2015-08-28T00:31:22.848Z,100533
2015-08-28T00:31:33.254Z,100524
2015-08-28T00:31:43.662Z,100533
2015-08-28T00:31:54.068Z,100530
2015-08-28T00:32:04.459Z,100521
2015-08-28T00:32:14.865Z,100527
2015-08-28T00:32:25.271Z,100527
2015-08-28T00:32:35.678Z,100521
2015-08-28T00:32:46.102Z,100533
2015-08-28T00:32:56.461Z,100524
2015-08-28T00:33:06.883Z,100527
2015-08-28T00:33:17.336Z,100524
2015-08-28T00:33:27.758Z,100521
2015-08-28T00:33:38.211Z,100527
2015-08-28T00:33:48.650Z,100515
2015-08-28T00:33:59.010Z,100524
2015-08-28T00:34:09.400Z,100536
2015-08-28T00:34:19.791Z,100524
2015-08-28T00:34:30.213Z,100527
2015-08-28T00:34:40.604Z,100524
2015-08-28T00:34:51.012Z,100518
2015-08-28T00:35:01.418Z,100527
2015-08-28T00:35:11.824Z,100515
2015-08-28T00:35:22.168Z,100518
2015-08-28T00:35:32.574Z,100527
2015-08-28T00:35:43.137Z,100518
2015-08-28T00:35:53.545Z,100527
2015-08-28T00:36:03.951Z,100518
2015-08-28T00:36:14.342Z,100515
2015-08-28T00:36:24.748Z,100518
2015-08-28T00:36:35.139Z,100510
2015-08-28T00:36:45.563Z,100533
2015-08-28T00:36:55.953Z,100521
2015-08-28T00:37:06.375Z,100530
2015-08-28T00:37:16.797Z,100524
2015-08-28T00:37:27.219Z,100527
2015-08-28T00:37:37.656Z,100533
2015-08-28T00:37:48.096Z,100533
2015-08-28T00:37:58.518Z,100533
2015-08-28T00:38:08.940Z,100536
2015-08-28T00:38:19.330Z,100536
2015-08-28T00:38:29.721Z,100538
2015-08-28T00:38:40.127Z,100533
2015-08-28T00:38:50.520Z,100533
2015-08-28T00:39:00.926Z,100536
2015-08-28T00:39:11.348Z,100541
2015-08-28T00:39:21.739Z,100553
2015-08-28T00:39:32.160Z,100550
2015-08-28T00:39:42.660Z,100547
2015-08-28T00:39:53.052Z,100541
2015-08-28T00:40:03.443Z,100544
2015-08-28T00:40:13.849Z,100541
2015-08-28T00:40:24.240Z,100556
2015-08-28T00:40:34.646Z,100541
2015-08-28T00:40:45.021Z,100550
2015-08-28T00:40:55.429Z,100553
2015-08-28T00:41:05.835Z,100550
2015-08-28T00:41:16.242Z,100556
2015-08-28T00:41:27.335Z,100550
2015-08-28T00:41:37.726Z,100559
2015-08-28T00:41:48.166Z,100547
2015-08-28T00:41:58.573Z,100550
2015-08-28T00:42:09.010Z,100573
2015-08-28T00:42:19.385Z,100547
2015-08-28T00:42:29.745Z,100550
2015-08-28T00:42:40.135Z,100564
2015-08-28T00:42:50.542Z,100550
2015-08-28T00:43:00.933Z,100550
2015-08-28T00:43:11.355Z,100550
2015-08-28T00:43:22.089Z,100556
2015-08-28T00:43:32.480Z,100550
2015-08-28T00:43:43.011Z,100553
2015-08-28T00:43:53.388Z,100547
2015-08-28T00:44:03.794Z,100541
2015-08-28T00:44:14.185Z,100547
2015-08-28T00:44:24.591Z,100547
2015-08-28T00:44:34.998Z,100547
2015-08-28T00:44:45.388Z,100541
2015-08-28T00:44:55.781Z,100547
2015-08-28T00:45:06.171Z,100541
2015-08-28T00:45:16.578Z,100541
2015-08-28T00:45:26.984Z,100550
2015-08-28T00:45:37.406Z,100553
2015-08-28T00:45:47.796Z,100544
2015-08-28T00:45:58.236Z,100538
2015-08-28T00:46:08.658Z,100538
2015-08-28T00:46:19.080Z,100538
2015-08-28T00:46:29.517Z,100541
2015-08-28T00:46:39.923Z,100544
2015-08-28T00:46:50.333Z,100544
2015-08-28T00:47:00.723Z,100533
2015-08-28T00:47:11.130Z,100541
2015-08-28T00:47:21.520Z,100541
2015-08-28T00:47:31.911Z,100530
2015-08-28T00:47:42.380Z,100538
2015-08-28T00:47:52.787Z,100544
2015-08-28T00:48:03.177Z,100536
2015-08-28T00:48:13.584Z,100541
2015-08-28T00:48:23.990Z,100538
2015-08-28T00:48:34.599Z,100547
2015-08-28T00:48:44.943Z,100541
2015-08-28T00:48:55.367Z,100538
2015-08-28T00:49:05.742Z,100536
2015-08-28T00:49:16.148Z,100533
2015-08-28T00:49:26.554Z,100541
2015-08-28T00:49:36.992Z,100544
2015-08-28T00:49:47.398Z,100544
2015-08-28T00:49:57.838Z,100547
2015-08-28T00:50:08.260Z,100541
2015-08-28T00:50:18.681Z,100538
2015-08-28T00:50:29.135Z,100544
2015-08-28T00:50:39.510Z,100547
2015-08-28T00:50:49.916Z,100544
2015-08-28T00:51:00.308Z,100544
2015-08-28T00:51:10.715Z,100550
2015-08-28T00:51:21.105Z,100556
2015-08-28T00:51:31.496Z,100553
2015-08-28T00:51:41.902Z,100556
2015-08-28T00:51:52.295Z,100538
2015-08-28T00:52:02.701Z,100559
2015-08-28T00:52:13.092Z,100559
2015-08-28T00:52:23.498Z,100570
2015-08-28T00:52:33.904Z,100567
2015-08-28T00:52:44.310Z,100562
2015-08-28T00:52:54.719Z,100567
2015-08-28T00:53:05.109Z,100567
2015-08-28T00:53:15.500Z,100562
2015-08-28T00:53:25.906Z,100570
2015-08-28T00:53:36.297Z,100573
2015-08-28T00:53:46.812Z,100570
2015-08-28T00:53:57.220Z,100573
2015-08-28T00:54:07.642Z,100573
2015-08-28T00:54:18.063Z,100579
2015-08-28T00:54:28.501Z,100576
2015-08-28T00:54:39.376Z,100576
2015-08-28T00:54:49.751Z,100576
2015-08-28T00:55:00.176Z,100576
2015-08-28T00:55:11.238Z,100567
2015-08-28T00:55:21.660Z,100573
2015-08-28T00:55:32.051Z,100582
2015-08-28T00:55:42.988Z,100576
2015-08-28T00:55:53.381Z,100579
2015-08-28T00:56:03.772Z,100579
2015-08-28T00:56:14.178Z,100573
2015-08-28T00:56:24.568Z,100573
2015-08-28T00:56:35.006Z,100567
2015-08-28T00:56:45.412Z,100567
2015-08-28T00:56:55.805Z,100570
2015-08-28T00:57:06.195Z,100570
2015-08-28T00:57:16.602Z,100567
2015-08-28T00:57:27.008Z,100573
2015-08-28T00:57:37.399Z,100567
2015-08-28T00:57:47.820Z,100562
2015-08-28T00:57:58.228Z,100570
2015-08-28T00:58:08.650Z,100564
2015-08-28T00:58:19.056Z,100564
2015-08-28T00:58:29.462Z,100564
2015-08-28T00:58:39.837Z,100573
2015-08-28T00:58:50.275Z,100559
2015-08-28T00:59:00.683Z,100567
2015-08-28T00:59:11.073Z,100567
2015-08-28T00:59:21.480Z,100570
2015-08-28T00:59:31.870Z,100567
2015-08-28T00:59:42.277Z,100567
2015-08-28T00:59:52.667Z,100570
2015-08-28T01:00:03.061Z,100570
2015-08-28T01:00:13.451Z,100573
2015-08-28T01:00:23.858Z,100567
2015-08-28T01:00:34.248Z,100582
2015-08-28T01:00:44.639Z,100573
2015-08-28T01:00:55.046Z,100573
2015-08-28T01:01:05.468Z,100587
2015-08-28T01:01:15.859Z,100576
2015-08-28T01:01:26.265Z,100573
2015-08-28T01:01:36.671Z,100570
2015-08-28T01:01:47.577Z,100576
2015-08-28T01:01:58.001Z,100573
2015-08-28T01:02:08.376Z,100576
2015-08-28T01:02:18.798Z,100564
2015-08-28T01:02:29.220Z,100570
2015-08-28T01:02:39.595Z,100564
2015-08-28T01:02:50.017Z,100562
2015-08-28T01:03:00.441Z,100573
2015-08-28T01:03:10.847Z,100562
2015-08-28T01:03:21.253Z,100553
2015-08-28T01:03:31.660Z,100553
2015-08-28T01:03:42.066Z,100553
2015-08-28T01:03:52.456Z,100556
2015-08-28T01:04:02.849Z,100559
2015-08-28T01:04:13.255Z,100564
2015-08-28T01:04:23.646Z,100556
2015-08-28T01:04:34.068Z,100556
2015-08-28T01:04:44.458Z,100553
2015-08-28T01:04:54.865Z,100559
2015-08-28T01:05:05.257Z,100559
2015-08-28T01:05:15.664Z,100556
2015-08-28T01:05:26.054Z,100562
2015-08-28T01:05:36.445Z,100573
2015-08-28T01:05:47.382Z,100564
2015-08-28T01:05:57.775Z,100573
2015-08-28T01:06:08.166Z,100570
2015-08-28T01:06:18.587Z,100573
2015-08-28T01:06:29.025Z,100576
2015-08-28T01:06:39.447Z,100582
2015-08-28T01:06:49.869Z,100582
2015-08-28T01:07:00.261Z,100587
2015-08-28T01:07:10.683Z,100576
2015-08-28T01:07:21.089Z,100570
2015-08-28T01:07:31.496Z,100573
2015-08-28T01:07:41.886Z,100579
2015-08-28T01:07:52.277Z,100573
2015-08-28T01:08:02.670Z,100559
2015-08-28T01:08:13.701Z,100562
2015-08-28T01:08:24.107Z,100553
2015-08-28T01:08:34.498Z,100562
2015-08-28T01:08:44.904Z,100553
2015-08-28T01:08:55.310Z,100547
2015-08-28T01:09:05.703Z,100544
2015-08-28T01:09:16.109Z,100547
2015-08-28T01:09:26.515Z,100536
2015-08-28T01:09:36.906Z,100541
2015-08-28T01:09:47.297Z,100536
2015-08-28T01:09:57.703Z,100538
2015-08-28T01:10:08.126Z,100538
2015-08-28T01:10:18.532Z,100544
2015-08-28T01:10:28.938Z,100544
2015-08-28T01:10:39.376Z,100547
2015-08-28T01:10:49.782Z,100544
2015-08-28T01:11:00.222Z,100544
2015-08-28T01:11:10.660Z,100550
2015-08-28T01:11:21.082Z,100550
2015-08-28T01:11:31.488Z,100553
2015-08-28T01:11:41.879Z,100550
2015-08-28T01:11:52.285Z,100562
2015-08-28T01:12:02.692Z,100562
2015-08-28T01:12:13.098Z,100567
2015-08-28T01:12:23.473Z,100570
2015-08-28T01:12:33.880Z,100567
2015-08-28T01:12:44.270Z,100567
2015-08-28T01:12:54.677Z,100567
2015-08-28T01:13:05.069Z,100579
2015-08-28T01:13:15.460Z,100582
2015-08-28T01:13:25.850Z,100579
2015-08-28T01:13:36.241Z,100573
2015-08-28T01:13:46.725Z,100570
2015-08-28T01:13:57.116Z,100582
2015-08-28T01:14:07.541Z,100576
2015-08-28T01:14:17.947Z,100570
2015-08-28T01:14:28.338Z,100579
2015-08-28T01:14:38.744Z,100579
2015-08-28T01:14:49.182Z,100579
2015-08-28T01:14:59.619Z,100582
2015-08-28T01:15:10.042Z,100579
2015-08-28T01:15:20.479Z,100582
2015-08-28T01:15:30.901Z,100582
2015-08-28T01:15:41.339Z,100592
2015-08-28T01:15:51.683Z,100582
2015-08-28T01:16:02.075Z,100592
2015-08-28T01:16:12.466Z,100598
2015-08-28T01:16:22.856Z,100587
2015-08-28T01:16:33.263Z,100595
2015-08-28T01:16:43.638Z,100595
2015-08-28T01:16:54.044Z,100598
2015-08-28T01:17:04.438Z,100592
2015-08-28T01:17:14.828Z,100595
2015-08-28T01:17:25.203Z,100607
2015-08-28T01:17:35.609Z,100595
2015-08-28T01:17:46.016Z,100601
2015-08-28T01:17:56.422Z,100589
2015-08-28T01:18:06.829Z,100592
2015-08-28T01:18:17.204Z,100589
2015-08-28T01:18:27.595Z,100592
2015-08-28T01:18:38.001Z,100589
2015-08-28T01:18:48.423Z,100589
2015-08-28T01:18:58.829Z,100573
2015-08-28T01:19:09.253Z,100579
2015-08-28T01:19:19.675Z,100564
2015-08-28T01:19:30.097Z,100579
2015-08-28T01:19:41.316Z,100567
2015-08-28T01:19:52.378Z,100564
2015-08-28T01:20:02.771Z,100564
2015-08-28T01:20:13.161Z,100559
2015-08-28T01:20:23.552Z,100547
2015-08-28T01:20:33.943Z,100559
2015-08-28T01:20:44.364Z,100559
2015-08-28T01:20:54.755Z,100562
2015-08-28T01:21:05.148Z,100559
2015-08-28T01:21:15.554Z,100559
2015-08-28T01:21:25.945Z,100559
2015-08-28T01:21:36.335Z,100559
2015-08-28T01:21:47.335Z,100570
2015-08-28T01:21:57.726Z,100553
2015-08-28T01:22:08.133Z,100559
2015-08-28T01:22:18.524Z,100567
2015-08-28T01:22:28.961Z,100564
2015-08-28T01:22:39.367Z,100564
2015-08-28T01:22:49.789Z,100576
2015-08-28T01:23:00.211Z,100564
2015-08-28T01:23:10.636Z,100567
2015-08-28T01:23:21.042Z,100579
2015-08-28T01:23:32.105Z,100579
2015-08-28T01:23:43.136Z,100576
2015-08-28T01:23:53.527Z,100589
2015-08-28T01:24:03.919Z,100582
2015-08-28T01:24:14.310Z,100589
2015-08-28T01:24:24.701Z,100582
2015-08-28T01:24:35.091Z,100582
2015-08-28T01:24:45.482Z,100589
2015-08-28T01:24:55.888Z,100582
2015-08-28T01:25:06.281Z,100589
2015-08-28T01:25:16.671Z,100595
2015-08-28T01:25:27.062Z,100592
2015-08-28T01:25:37.453Z,100589
2015-08-28T01:25:47.859Z,100595
2015-08-28T01:25:58.406Z,100604
2015-08-28T01:26:08.814Z,100595
2015-08-28T01:26:19.205Z,100592
2015-08-28T01:26:29.611Z,100598
2015-08-28T01:26:40.017Z,100598
2015-08-28T01:26:50.392Z,100589
2015-08-28T01:27:00.814Z,100601
2015-08-28T01:27:11.252Z,100592
2015-08-28T01:27:21.690Z,100595
2015-08-28T01:27:32.737Z,100598
2015-08-28T01:27:43.159Z,100601
2015-08-28T01:27:53.549Z,100589
2015-08-28T01:28:03.940Z,100595
2015-08-28T01:28:14.349Z,100589
2015-08-28T01:28:24.771Z,100589
2015-08-28T01:28:35.177Z,100589
2015-08-28T01:28:45.568Z,100589
2015-08-28T01:28:55.959Z,100595
2015-08-28T01:29:06.366Z,100595
2015-08-28T01:29:16.741Z,100589
2015-08-28T01:29:27.131Z,100592
2015-08-28T01:29:37.538Z,100589
2015-08-28T01:29:47.960Z,100589
2015-08-28T01:29:58.350Z,100587
2015-08-28T01:30:08.758Z,100582
2015-08-28T01:30:19.180Z,100582
2015-08-28T01:30:29.571Z,100576
2015-08-28T01:30:39.977Z,100570
2015-08-28T01:30:50.415Z,100589
2015-08-28T01:31:00.868Z,100582
2015-08-28T01:31:11.292Z,100582
2015-08-28T01:31:21.714Z,100576
2015-08-28T01:31:32.073Z,100592
2015-08-28T01:31:42.557Z,100582
2015-08-28T01:31:52.948Z,100573
2015-08-28T01:32:03.339Z,100587
2015-08-28T01:32:13.731Z,100598
2015-08-28T01:32:24.137Z,100592
2015-08-28T01:32:34.512Z,100589
2015-08-28T01:32:44.903Z,100598
2015-08-28T01:32:55.294Z,100598
2015-08-28T01:33:05.700Z,100601
2015-08-28T01:33:16.094Z,100601
2015-08-28T01:33:26.500Z,100598
2015-08-28T01:33:36.906Z,100604
2015-08-28T01:33:47.312Z,100604
2015-08-28T01:33:57.719Z,100595
2015-08-28T01:34:08.157Z,100604
2015-08-28T01:34:18.548Z,100601
2015-08-28T01:34:28.891Z,100595
2015-08-28T01:34:39.282Z,100598
2015-08-28T01:34:49.673Z,100587
2015-08-28T01:35:00.095Z,100592
2015-08-28T01:35:10.518Z,100582
2015-08-28T01:35:20.956Z,100582
2015-08-28T01:35:31.378Z,100592
2015-08-28T01:35:41.753Z,100579
2015-08-28T01:35:52.190Z,100579
2015-08-28T01:36:02.597Z,100579
2015-08-28T01:36:13.020Z,100579
2015-08-28T01:36:23.411Z,100582
2015-08-28T01:36:33.817Z,100567
2015-08-28T01:36:44.224Z,100582
2015-08-28T01:36:54.614Z,100582
2015-08-28T01:37:05.020Z,100576
2015-08-28T01:37:15.413Z,100582
2015-08-28T01:37:25.804Z,100582
2015-08-28T01:37:36.194Z,100589
2015-08-28T01:37:46.726Z,100592
2015-08-28T01:37:57.116Z,100582
2015-08-28T01:38:07.507Z,100607
2015-08-28T01:38:17.898Z,100595
2015-08-28T01:38:28.289Z,100598
2015-08-28T01:38:38.695Z,100595
2015-08-28T01:38:49.055Z,100595
2015-08-28T01:38:59.445Z,100604
2015-08-28T01:39:09.870Z,100601
2015-08-28T01:39:20.276Z,100610
2015-08-28T01:39:30.683Z,100613
2015-08-28T01:39:41.089Z,100607
2015-08-28T01:39:51.511Z,100604
2015-08-28T01:40:01.870Z,100607
2015-08-28T01:40:12.278Z,100610
2015-08-28T01:40:22.622Z,100613
2015-08-28T01:40:33.013Z,100615
2015-08-28T01:40:43.388Z,100607
2015-08-28T01:40:53.778Z,100610
2015-08-28T01:41:04.185Z,100613
2015-08-28T01:41:14.576Z,100613
2015-08-28T01:41:24.951Z,100604
2015-08-28T01:41:35.342Z,100613
2015-08-28T01:41:45.764Z,100610
2015-08-28T01:41:56.139Z,100604
2015-08-28T01:42:06.529Z,100610
2015-08-28T01:42:16.922Z,100610
2015-08-28T01:42:27.344Z,100601
2015-08-28T01:42:37.735Z,100592
2015-08-28T01:42:48.141Z,100598
2015-08-28T01:42:58.547Z,100592
2015-08-28T01:43:08.938Z,100595
2015-08-28T01:43:19.330Z,100592
2015-08-28T01:43:29.737Z,100592
2015-08-28T01:43:40.502Z,100592
2015-08-28T01:43:50.940Z,100595
2015-08-28T01:44:01.377Z,100589
2015-08-28T01:44:11.739Z,100589
2015-08-28T01:44:22.160Z,100595
2015-08-28T01:44:32.567Z,100601
2015-08-28T01:44:42.957Z,100592
2015-08-28T01:44:53.348Z,100587
2015-08-28T01:45:03.723Z,100592
2015-08-28T01:45:14.116Z,100592
2015-08-28T01:45:24.506Z,100592
2015-08-28T01:45:34.897Z,100589
2015-08-28T01:45:45.287Z,100589
2015-08-28T01:45:55.694Z,100592
2015-08-28T01:46:06.084Z,100598
2015-08-28T01:46:16.493Z,100592
2015-08-28T01:46:26.914Z,100592
2015-08-28T01:46:37.305Z,100595
2015-08-28T01:46:47.696Z,100592
2015-08-28T01:46:58.102Z,100587
2015-08-28T01:47:08.446Z,100592
2015-08-28T01:47:18.854Z,100595
2015-08-28T01:47:29.260Z,100598
2015-08-28T01:47:39.682Z,100587
2015-08-28T01:47:50.104Z,100595
2015-08-28T01:48:00.526Z,100592
2015-08-28T01:48:10.979Z,100587
2015-08-28T01:48:22.059Z,100587
2015-08-28T01:48:32.497Z,100595
2015-08-28T01:48:43.559Z,100598
2015-08-28T01:48:53.965Z,100589
2015-08-28T01:49:04.356Z,100601
2015-08-28T01:49:14.764Z,100598
2015-08-28T01:49:25.155Z,100595
2015-08-28T01:49:35.561Z,100604
2015-08-28T01:49:45.999Z,100598
2015-08-28T01:49:56.389Z,100610
2015-08-28T01:50:06.780Z,100598
2015-08-28T01:50:17.157Z,100610
2015-08-28T01:50:27.551Z,100604
2015-08-28T01:50:37.942Z,100598
2015-08-28T01:50:48.364Z,100601
2015-08-28T01:50:58.786Z,100592
2015-08-28T01:51:09.176Z,100601
2015-08-28T01:51:19.569Z,100601
2015-08-28T01:51:29.991Z,100598
2015-08-28T01:51:40.491Z,100592
2015-08-28T01:51:50.897Z,100589
2015-08-28T01:52:01.350Z,100601
2015-08-28T01:52:11.772Z,100598
2015-08-28T01:52:22.212Z,100595
2015-08-28T01:52:32.649Z,100595
2015-08-28T01:52:43.758Z,100595
2015-08-28T01:52:54.165Z,100592
2015-08-28T01:53:04.571Z,100598
2015-08-28T01:53:14.962Z,100595
2015-08-28T01:53:25.354Z,100598
2015-08-28T01:53:35.760Z,100582
2015-08-28T01:53:46.151Z,100595
2015-08-28T01:53:56.573Z,100595
2015-08-28T01:54:06.964Z,100595
2015-08-28T01:54:17.387Z,100592
2015-08-28T01:54:27.778Z,100595
2015-08-28T01:54:38.200Z,100589
2015-08-28T01:54:48.591Z,100598
2015-08-28T01:54:58.981Z,100601
2015-08-28T01:55:09.372Z,100604
2015-08-28T01:55:19.749Z,100595
2015-08-28T01:55:30.139Z,100592
2015-08-28T01:55:40.655Z,100601
2015-08-28T01:55:51.077Z,100598
2015-08-28T01:56:01.874Z,100604
2015-08-28T01:56:12.280Z,100598
2015-08-28T01:56:22.703Z,100607
2015-08-28T01:56:33.125Z,100604
2015-08-28T01:56:43.562Z,100607
2015-08-28T01:56:53.969Z,100604
2015-08-28T01:57:04.375Z,100610
2015-08-28T01:57:14.781Z,100610
2015-08-28T01:57:25.175Z,100610
2015-08-28T01:57:35.565Z,100607
2015-08-28T01:57:45.987Z,100601
2015-08-28T01:57:56.378Z,100601
2015-08-28T01:58:06.768Z,100607
2015-08-28T01:58:17.206Z,100604
2015-08-28T01:58:27.677Z,100610
2015-08-28T01:58:38.099Z,100610
2015-08-28T01:58:48.505Z,100607
2015-08-28T01:58:58.927Z,100610
2015-08-28T01:59:09.317Z,100615
2015-08-28T01:59:19.693Z,100618
2015-08-28T01:59:30.084Z,100601
2015-08-28T01:59:40.912Z,100610
2015-08-28T01:59:51.334Z,100607
2015-08-28T02:00:01.678Z,100612
2015-08-28T02:00:12.068Z,100604
2015-08-28T02:00:22.462Z,100610
2015-08-28T02:00:33.259Z,100607
2015-08-28T02:00:43.634Z,100610
2015-08-28T02:00:54.056Z,100610
2015-08-28T02:01:04.493Z,100615
2015-08-28T02:01:14.868Z,100610
2015-08-28T02:01:25.291Z,100613
2015-08-28T02:01:36.338Z,100610
2015-08-28T02:01:47.541Z,100621
2015-08-28T02:01:57.963Z,100607
2015-08-28T02:02:08.369Z,100621
2015-08-28T02:02:18.760Z,100610
2015-08-28T02:02:29.168Z,100618
2015-08-28T02:02:39.574Z,100612
2015-08-28T02:02:49.965Z,100618
2015-08-28T02:03:00.356Z,100607
2015-08-28T02:03:10.746Z,100615
2015-08-28T02:03:21.154Z,100610
2015-08-28T02:03:31.561Z,100610
2015-08-28T02:03:41.904Z,100612
2015-08-28T02:03:52.295Z,100610
2015-08-28T02:04:02.686Z,100607
2015-08-28T02:04:13.076Z,100621
2015-08-28T02:04:23.423Z,100615
2015-08-28T02:04:33.829Z,100612
2015-08-28T02:04:44.236Z,100610
2015-08-28T02:04:54.657Z,100618
2015-08-28T02:05:05.079Z,100621
2015-08-28T02:05:15.532Z,100615
2015-08-28T02:05:25.955Z,100621
2015-08-28T02:05:36.377Z,100621
2015-08-28T02:05:46.940Z,100618
2015-08-28T02:05:57.330Z,100618
2015-08-28T02:06:07.721Z,100610
2015-08-28T02:06:18.112Z,100630
2015-08-28T02:06:28.504Z,100621
2015-08-28T02:06:38.895Z,100627
2015-08-28T02:06:49.301Z,100624
2015-08-28T02:06:59.692Z,100621
2015-08-28T02:07:10.082Z,100624
2015-08-28T02:07:20.473Z,100621
2015-08-28T02:07:30.897Z,100621
2015-08-28T02:07:41.287Z,100621
2015-08-28T02:07:51.678Z,100618
2015-08-28T02:08:02.069Z,100621
2015-08-28T02:08:12.459Z,100633
2015-08-28T02:08:22.836Z,100624
2015-08-28T02:08:33.227Z,100627
2015-08-28T02:08:43.633Z,100621
2015-08-28T02:08:54.055Z,100618
2015-08-28T02:09:04.477Z,100621
2015-08-28T02:09:14.852Z,100633
2015-08-28T02:09:25.290Z,100627
2015-08-28T02:09:35.712Z,100633
2015-08-28T02:09:46.150Z,100630
2015-08-28T02:09:56.572Z,100624
2015-08-28T02:10:06.978Z,100627